Overview Statistics Trail Chart Weather Telemetry Raw packets
 

This is the latest recevied weather packets stored in our database for station/object DF7ER-12. If no packets are shown the sender has not sent any weather packets the latest 10 day(s).

<< 10 11 12 13 14 15 16 >>
Time Temp. Humidity Pressure Rain* Wind** Luminosity Snow
1788598077 20.56° C 86% 1005.1 hPa - - - -
1788597778 20° C 88% 1005.2 hPa - - - -
1788597477 20.56° C 84% 1005.1 hPa - - - -
1788597177 20.56° C 85% 1005 hPa - - - -
1788596877 21.11° C 83% 1004.8 hPa - - - -
1788596577 21.67° C 80% 1004.9 hPa - - - -
1788596277 21.11° C 83% 1004.8 hPa - - - -
1788595977 20.56° C 84% 1004.8 hPa - - - -
1788595677 20.56° C 84% 1004.7 hPa - - - -
1788595377 20.56° C 83% 1004.7 hPa - - - -
1788595077 20.56° C 83% 1004.6 hPa - - - -
1788594777 21.11° C 82% 1004.6 hPa - - - -
1788594477 21.11° C 82% 1004.6 hPa - - - -
1788594177 21.11° C 82% 1004.6 hPa - - - -
1788593877 21.11° C 83% 1004.6 hPa - - - -
1788593577 21.11° C 83% 1004.5 hPa - - - -
1788593277 20.56° C 84% 1004.5 hPa - - - -
1788592977 20.56° C 85% 1004.5 hPa - - - -
1788592677 20.56° C 85% 1004.4 hPa - - - -
1788592377 20° C 86% 1004.3 hPa - - - -
1788592077 20° C 86% 1004.3 hPa - - - -
1788591777 20° C 84% 1004.2 hPa - - - -
1788591477 20° C 86% 1004.3 hPa - - - -
1788591177 19.44° C 87% 1004.3 hPa - - - -
1788590877 19.44° C 87% 1004.3 hPa - - - -

* Rain since midnight (hover to see other rain measurements)
** Current wind speed in m/s (hover to see current wind gust speed)